Aérodrome :
LOGIN :

S'inscrire | Disclaimer

   EN    FR    IT 

 










Légende :    VFR   VFR Marginal   IFR   IFR Intensif   IFR Très Intensif
Visi : 
Plafond : 
>= 8 km
>= 3000ft
5 à 8 km
1000 à 3000 ft
1500m à 5 km
500 à 1000 ft
800 à 1500m
200 à 500 ft
< 800m
< 200 ft
Symboles :   Orages  Brouillard  Fortes neiges  Fortes précipitations  Vent > 20 kt
SIGMETs :   Divers  Orages  Givrage  Turbulence  Onde Orograph.  Cendres Volcan.






- Altitude de l'aérodrome : 158 ft
- Code IATA : QAR


EHDL - Deelen Airbase

DERNIER METAR :
  • 301655Z AUTO 31012KT 230V360 9999 BKN027 OVC031 21/15 Q1009 BLU

METARs EXPIRÉS :
  • 301625Z AUTO 33011KT 260V040 9999 FEW083 23/15 Q1009 BLU
  • 301555Z AUTO 34012KT 280V030 9999 SCT035 SCT072 BKN081 24/15 Q1009 BLU
  • 301525Z AUTO 34009KT 270V060 9999 SCT077 SCT083 25/16 Q1010 BLU
  • 301455Z AUTO 33010KT 250V050 9999 SCT045 BKN050 25/15 Q1010 BLU
  • 301425Z AUTO 36012KT 310V040 9999 SCT038 SCT042 BKN050 24/15 Q1010 BLU

Prévision TAF périmée.



MET'MAP, la Météo Aéronautique d'un coup d'oeil ! - Copyright ORBIFLY Décembre 2007 - Disclaimer

ORBIFLY MET'MAP TEAM :

Programmation & Développement : Alexandra Zaïnal
Sur une idée originale de : Baudouin d'Aumeries
Soutien technique & logistique : Manuel Goepfert
Assistance : Marc-Olivier Méhu




SOURCES & CREDITS :

   NOAA